Time;durP1;ratioP1;P1;durP2;ratioP2;P2;SDS_P1;SDS_P2;PMS_P1;PMS_P2;Temp;Humidity;BMP_temperature;BMP_pressure;BME280_temperature;BME280_humidity;BME280_pressure;Samples;Min_cycle;Max_cycle;Signal;HPM_P1;HPM_P2
2021/08/03 03:30:34;;;;;;;2.20;2.00;;;;;;;15.57;90.28;98521.25;4978858;22;105818;-57
2021/08/03 03:33:06;;;;;;;3.40;1.50;;;;;;;15.57;89.64;98526.56;5013266;27;103005;-58
2021/08/03 03:35:42;;;;;;;6.97;2.88;;;;;;;15.55;89.57;98525.84;4998234;28;102904;-58
2021/08/03 03:38:12;;;;;;;2.83;2.13;;;;;;;15.57;89.79;98526.56;5013770;27;103403;-59
2021/08/03 03:40:41;;;;;;;2.37;2.07;;;;;;;15.58;89.40;98522.06;5016594;27;103401;-59
2021/08/03 03:43:10;;;;;;;1.97;1.87;;;;;;;15.60;88.90;98520.94;4991439;28;102659;-59
2021/08/03 03:45:43;;;;;;;3.90;2.63;;;;;;;15.57;88.68;98515.91;4999875;28;102934;-59
2021/08/03 03:48:13;;;;;;;2.13;1.93;;;;;;;15.60;89.10;98510.31;4997972;28;103469;-58
2021/08/03 03:50:46;;;;;;;2.70;2.47;;;;;;;15.55;88.69;98509.88;5010659;28;104338;-58
2021/08/03 03:53:19;;;;;;;1.80;1.60;;;;;;;15.56;88.97;98508.06;4990778;28;102732;-59
2021/08/03 03:55:50;;;;;;;2.17;1.93;;;;;;;15.53;89.24;98505.69;5022249;27;102931;-59
2021/08/03 03:58:20;;;;;;;2.53;1.90;;;;;;;15.57;88.85;98513.25;5014002;28;103525;-58
2021/08/03 04:00:50;;;;;;;2.80;2.10;;;;;;;15.57;88.93;98515.91;4998366;28;104500;-58
2021/08/03 04:03:22;;;;;;;2.33;2.13;;;;;;;15.56;88.82;98513.38;5019060;28;104107;-59
2021/08/03 04:05:54;;;;;;;2.30;2.10;;;;;;;15.47;88.89;98509.78;5021690;28;102998;-58
2021/08/03 04:08:24;;;;;;;1.77;1.67;;;;;;;15.51;89.20;98510.31;5021594;28;103499;-58
2021/08/03 04:10:52;;;;;;;2.53;2.20;;;;;;;15.54;88.72;98516.22;5019199;27;104330;-58
2021/08/03 04:13:21;;;;;;;2.37;1.83;;;;;;;15.50;88.94;98513.97;5022381;27;102829;-59
2021/08/03 04:15:50;;;;;;;3.03;1.70;;;;;;;15.49;89.31;98509.66;5019044;28;102647;-58
2021/08/03 04:18:19;;;;;;;1.60;1.50;;;;;;;15.49;89.02;98510.50;5002003;28;103531;-59
2021/08/03 04:20:47;;;;;;;3.23;1.57;;;;;;;15.49;88.81;98501.66;5018295;27;103158;-59
2021/08/03 04:23:16;;;;;;;4.27;2.63;;;;;;;15.37;89.66;98503.63;5002527;28;102732;-59
2021/08/03 04:25:44;;;;;;;2.10;1.80;;;;;;;15.42;89.79;98508.50;5020283;27;102696;-58
2021/08/03 04:28:12;;;;;;;5.20;2.30;;;;;;;15.45;89.72;98500.22;5020907;28;103577;-59
2021/08/03 04:30:40;;;;;;;4.60;2.57;;;;;;;15.42;90.20;98501.34;5019140;27;104335;-58
2021/08/03 04:33:10;;;;;;;2.53;2.30;;;;;;;15.45;89.97;98511.72;5019087;28;102626;-59
2021/08/03 04:35:38;;;;;;;2.07;1.83;;;;;;;15.51;89.46;98508.50;5020759;28;102652;-59
2021/08/03 04:38:06;;;;;;;4.13;1.90;;;;;;;15.55;89.47;98507.22;5017899;27;104467;-65
2021/08/03 04:40:34;;;;;;;3.70;2.07;;;;;;;15.56;89.46;98518.72;5002555;27;104532;-65
2021/08/03 04:43:02;;;;;;;3.33;2.00;;;;;;;15.58;89.33;98511.41;5017965;27;102770;-65
2021/08/03 04:45:30;;;;;;;4.23;2.37;;;;;;;15.60;89.27;98512.97;5018486;28;103138;-65
2021/08/03 04:47:58;;;;;;;2.50;2.20;;;;;;;15.61;89.23;98519.94;5017675;27;103778;-64
2021/08/03 04:50:29;;;;;;;2.97;2.10;;;;;;;15.63;89.08;98514.50;4998434;28;107264;-62
2021/08/03 04:52:57;;;;;;;1.93;1.83;;;;;;;15.61;88.88;98506.63;5017787;27;102582;-65
2021/08/03 04:55:25;;;;;;;1.73;1.63;;;;;;;15.65;88.21;98507.19;5017603;28;102713;-65
2021/08/03 04:57:53;;;;;;;2.80;1.70;;;;;;;15.69;88.02;98516.53;4989022;28;106149;-65
2021/08/03 05:00:21;;;;;;;1.77;1.67;;;;;;;15.69;87.95;98513.88;5014868;28;103663;-65
2021/08/03 05:02:49;;;;;;;1.33;1.23;;;;;;;15.75;87.81;98505.31;5013126;28;102601;-65
2021/08/03 05:05:18;;;;;;;3.07;1.30;;;;;;;15.81;87.28;98502.06;5012837;27;102683;-66
2021/08/03 05:08:01;;;;;;;1.70;1.60;;;;;;;15.89;87.04;98506.63;4990759;28;104434;-65
2021/08/03 05:10:30;;;;;;;2.60;1.73;;;;;;;15.86;87.16;98504.28;5016408;27;103691;-64
2021/08/03 05:12:58;;;;;;;2.67;2.33;;;;;;;15.89;86.84;98503.97;5009497;28;103883;-65
2021/08/03 05:15:27;;;;;;;3.63;2.60;;;;;;;15.91;86.88;98502.00;5019059;27;104546;-65
2021/08/03 05:17:55;;;;;;;3.00;2.00;;;;;;;15.91;86.91;98507.34;5015471;27;104562;-66
2021/08/03 05:20:24;;;;;;;3.13;1.90;;;;;;;16.04;86.84;98503.34;5012045;27;104740;-66
2021/08/03 05:22:52;;;;;;;3.27;1.77;;;;;;;16.01;86.24;98500.97;5010982;28;102697;-63
2021/08/03 05:25:21;;;;;;;4.57;2.00;;;;;;;16.07;86.65;98503.03;5013396;28;102852;-66
2021/08/03 05:27:49;;;;;;;3.03;2.00;;;;;;;16.08;86.49;98494.03;5014448;28;104336;-65
2021/08/03 05:30:17;;;;;;;1.63;1.53;;;;;;;16.06;86.60;98495.16;4993826;27;104462;-60
2021/08/03 05:32:45;;;;;;;6.35;2.13;;;;;;;16.00;86.25;98495.81;5014908;28;102744;-60
2021/08/03 05:35:14;;;;;;;2.33;2.00;;;;;;;15.87;87.29;98485.47;5015742;28;102685;-59
2021/08/03 05:37:42;;;;;;;2.90;2.10;;;;;;;15.90;87.08;98485.19;5012710;28;103435;-59
2021/08/03 05:40:12;;;;;;;2.90;2.10;;;;;;;15.99;86.96;98483.44;5011552;27;103291;-60
2021/08/03 05:42:42;;;;;;;3.43;1.73;;;;;;;15.86;87.39;98485.66;4993369;28;102959;-59
2021/08/03 05:45:11;;;;;;;4.97;2.20;;;;;;;15.81;87.47;98483.41;5010407;27;102954;-59
2021/08/03 05:47:39;;;;;;;2.20;1.95;;;;;;;15.95;87.05;98495.38;5015993;27;109290;-59
2021/08/03 05:50:08;;;;;;;3.63;1.90;;;;;;;16.03;86.73;98490.97;5013947;28;103285;-59
2021/08/03 05:52:36;;;;;;;2.50;1.67;;;;;;;15.98;86.43;98497.75;5015457;28;102660;-60
2021/08/03 05:55:06;;;;;;;3.17;2.00;;;;;;;16.12;85.78;98497.25;5013143;28;102650;-59
2021/08/03 05:57:35;;;;;;;3.50;2.00;;;;;;;16.19;85.66;98487.66;5016016;28;103367;-60
2021/08/03 06:00:06;;;;;;;2.05;1.70;;;;;;;16.24;84.95;98496.03;4994133;28;104246;-59
2021/08/03 06:02:40;;;;;;;2.47;2.15;;;;;;;16.33;84.94;98497.81;5009872;27;102628;-59
2021/08/03 06:05:10;;;;;;;5.23;2.30;;;;;;;16.43;84.83;98498.56;5014969;28;102847;-59
2021/08/03 06:07:42;;;;;;;3.77;2.20;;;;;;;16.55;84.52;98502.72;4999807;28;104486;-59
2021/08/03 06:10:12;;;;;;;3.50;2.00;;;;;;;16.79;83.85;98494.91;5014434;28;104396;-59
2021/08/03 06:12:43;;;;;;;2.60;1.87;;;;;;;16.99;82.78;98497.38;5016486;28;102647;-59
2021/08/03 06:15:15;;;;;;;5.17;2.13;;;;;;;17.17;82.31;98492.84;5011531;27;102748;-59
2021/08/03 06:17:47;;;;;;;2.40;1.90;;;;;;;17.17;81.54;98501.72;5011291;27;104013;-60
2021/08/03 06:20:15;;;;;;;3.60;2.17;;;;;;;17.21;80.99;98500.38;5015010;27;104345;-59
2021/08/03 06:22:43;;;;;;;3.72;2.45;;;;;;;16.97;81.48;98502.06;5013748;27;103083;-59
2021/08/03 06:25:15;;;;;;;3.25;2.40;;;;;;;17.19;81.49;98490.88;5012812;28;102689;-59
2021/08/03 06:27:44;;;;;;;2.10;1.90;;;;;;;17.28;81.11;98495.25;5011649;28;103530;-59
2021/08/03 06:30:14;;;;;;;2.63;2.17;;;;;;;17.28;81.04;98496.09;5009148;27;103183;-59
2021/08/03 06:32:44;;;;;;;3.15;2.42;;;;;;;17.21;80.95;98496.88;5009869;27;102999;-60
2021/08/03 06:35:15;;;;;;;3.90;2.70;;;;;;;17.36;80.84;98489.97;5015633;27;102639;-60
2021/08/03 06:37:43;;;;;;;3.53;2.95;;;;;;;17.53;80.77;98502.41;5011810;27;103282;-60
2021/08/03 06:40:12;;;;;;;2.90;2.30;;;;;;;17.62;80.67;98496.16;5013188;28;103011;-60
2021/08/03 06:42:45;;;;;;;5.25;2.45;;;;;;;17.93;79.46;98491.09;5015747;28;102648;-60
2021/08/03 06:45:20;;;;;;;5.93;2.40;;;;;;;17.74;79.60;98484.16;5014059;28;102585;-60
2021/08/03 06:47:56;;;;;;;3.25;2.25;;;;;;;17.50;79.96;98481.38;4995907;28;103898;-60
2021/08/03 06:50:30;;;;;;;2.20;2.00;;;;;;;17.79;79.88;98481.88;5014506;27;103213;-60
2021/08/03 06:52:59;;;;;;;3.15;2.47;;;;;;;17.86;79.43;98482.88;5013752;28;102791;-60
2021/08/03 06:55:30;;;;;;;2.67;1.90;;;;;;;18.16;78.22;98488.66;5014702;28;102774;-59
2021/08/03 06:58:03;;;;;;;3.25;1.98;;;;;;;18.36;77.25;98480.16;5015303;28;103903;-60
2021/08/03 07:00:37;;;;;;;1.98;1.80;;;;;;;18.40;76.95;98483.34;5014616;28;104605;-60
2021/08/03 07:03:08;;;;;;;2.97;1.73;;;;;;;18.35;77.22;98481.19;5012942;27;102699;-60
2021/08/03 07:05:43;;;;;;;4.47;2.72;;;;;;;18.26;76.31;98482.16;5013110;27;102783;-60
2021/08/03 07:08:13;;;;;;;1.98;1.77;;;;;;;18.31;76.73;98481.66;5015298;28;108544;-59
2021/08/03 07:10:42;;;;;;;2.97;1.95;;;;;;;18.32;76.01;98486.03;5018583;28;104424;-60
2021/08/03 07:13:12;;;;;;;3.67;1.80;;;;;;;18.26;76.48;98479.50;5002112;28;102577;-59
2021/08/03 07:15:42;;;;;;;2.47;1.90;;;;;;;18.45;76.11;98481.00;5018915;28;102679;-60
2021/08/03 07:18:12;;;;;;;2.50;1.30;;;;;;;18.68;76.18;98484.75;5012303;28;103406;-60
2021/08/03 07:20:41;;;;;;;3.22;1.45;;;;;;;18.98;74.15;98477.88;5018901;28;103210;-60
2021/08/03 07:23:11;;;;;;;3.13;1.77;;;;;;;19.30;73.37;98482.34;5018308;28;102574;-59
2021/08/03 07:25:40;;;;;;;3.17;1.75;;;;;;;19.21;72.43;98488.72;5018565;27;103025;-60
2021/08/03 07:28:08;;;;;;;2.35;1.40;;;;;;;19.17;73.07;98490.94;5018186;27;103430;-60
2021/08/03 07:30:36;;;;;;;2.17;1.27;;;;;;;19.53;72.03;98488.69;5008435;27;104397;-60
2021/08/03 07:33:06;;;;;;;1.80;1.65;;;;;;;19.48;71.86;98491.06;5000374;28;102623;-59
2021/08/03 07:35:34;;;;;;;3.67;1.85;;;;;;;19.37;72.36;98488.72;5002183;28;102852;-60
2021/08/03 07:38:02;;;;;;;2.33;2.00;;;;;;;19.65;71.56;98487.28;5000702;28;103496;-59
2021/08/03 07:40:30;;;;;;;3.35;2.25;;;;;;;19.39;72.67;98492.06;4997869;28;104263;-60
2021/08/03 07:42:59;;;;;;;5.13;2.50;;;;;;;19.73;73.05;98486.44;5000258;28;103656;-60
2021/08/03 07:45:27;;;;;;;4.10;2.00;;;;;;;19.62;72.81;98493.03;5001625;28;103453;-60
2021/08/03 07:47:57;;;;;;;1.85;1.40;;;;;;;20.04;71.69;98495.34;5001226;28;104601;-60
2021/08/03 07:50:26;;;;;;;4.32;1.83;;;;;;;20.17;69.73;98493.78;5000930;28;103238;-60
2021/08/03 07:52:55;;;;;;;3.53;1.70;;;;;;;19.87;70.71;98491.06;4982932;28;102628;-60
2021/08/03 07:55:23;;;;;;;6.25;1.60;;;;;;;20.00;70.23;98502.91;5000181;28;102920;-60
2021/08/03 07:57:51;;;;;;;3.97;1.33;;;;;;;20.09;70.40;98501.03;5003217;28;103456;-60
2021/08/03 08:00:19;;;;;;;3.80;2.10;;;;;;;20.09;70.75;98495.66;5001891;28;103213;-60
2021/08/03 08:02:47;;;;;;;3.35;1.88;;;;;;;20.07;71.04;98495.00;5000139;28;102813;-59
2021/08/03 08:05:17;;;;;;;3.15;1.70;;;;;;;20.50;70.37;98490.91;5000663;28;102675;-59
2021/08/03 08:07:46;;;;;;;4.07;2.17;;;;;;;20.30;70.18;98487.84;4997914;28;103381;-59
2021/08/03 08:10:14;;;;;;;3.25;2.20;;;;;;;20.26;70.58;98496.44;5001702;28;103300;-59
2021/08/03 08:12:42;;;;;;;4.75;1.95;;;;;;;20.47;70.64;98493.94;4995760;28;102666;-59
2021/08/03 08:15:12;;;;;;;3.28;2.10;;;;;;;20.56;70.18;98496.41;5002281;28;103062;-58
2021/08/03 08:17:40;;;;;;;2.10;1.92;;;;;;;20.42;70.00;98497.16;5001358;28;103330;-58
2021/08/03 08:20:13;;;;;;;3.53;1.98;;;;;;;20.70;69.14;98500.16;5001162;28;103257;-59
2021/08/03 08:22:41;;;;;;;4.95;1.75;;;;;;;20.74;69.09;98496.13;4999323;28;102675;-60
2021/08/03 08:25:13;;;;;;;2.33;1.73;;;;;;;20.78;69.93;98492.88;5000862;28;102529;-59
2021/08/03 08:27:42;;;;;;;2.33;1.80;;;;;;;20.73;69.30;98492.59;4979132;28;103664;-60
2021/08/03 08:30:18;;;;;;;4.15;1.92;;;;;;;20.59;71.51;98489.84;4985302;28;103146;-62
2021/08/03 08:32:47;;;;;;;1.95;1.50;;;;;;;20.64;70.74;98484.75;5018794;27;102623;-62
2021/08/03 08:35:36;;;;;;;3.15;1.77;;;;;;;20.68;70.92;98480.72;5013730;28;102955;-61
2021/08/03 08:38:06;;;;;;;3.63;2.30;;;;;;;19.94;73.36;98486.66;5017363;27;103341;-62
2021/08/03 08:40:42;;;;;;;3.53;1.98;;;;;;;20.74;70.34;98485.38;5018443;27;103109;-64
2021/08/03 08:43:13;;;;;;;3.00;1.77;;;;;;;20.91;69.22;98484.22;5016154;28;102648;-60
2021/08/03 08:45:43;;;;;;;5.70;2.42;;;;;;;21.00;68.24;98495.69;5017135;28;102982;-60
2021/08/03 08:48:13;;;;;;;2.45;1.48;;;;;;;21.18;68.70;98494.41;5019546;27;103327;-61
2021/08/03 08:50:42;;;;;;;5.75;1.95;;;;;;;21.26;67.71;98491.63;5012613;27;106131;-61
2021/08/03 08:53:11;;;;;;;3.92;1.88;;;;;;;20.96;66.44;98495.25;4998160;28;103976;-60
2021/08/03 08:55:41;;;;;;;3.75;1.88;;;;;;;21.13;67.37;98495.97;5018203;27;102650;-60
2021/08/03 08:58:09;;;;;;;1.55;1.27;;;;;;;21.63;67.55;98496.13;4995206;28;103343;-60
2021/08/03 09:00:37;;;;;;;2.05;1.80;;;;;;;21.67;66.72;98496.59;5016686;27;104424;-60
2021/08/03 09:03:07;;;;;;;3.90;1.85;;;;;;;21.09;66.41;98495.50;5013137;27;103517;-60
2021/08/03 09:05:37;;;;;;;2.28;1.40;;;;;;;22.18;63.88;98492.06;5016291;28;102620;-60
2021/08/03 09:08:07;;;;;;;1.67;1.30;;;;;;;23.00;62.25;98491.53;5016840;27;104487;-60
2021/08/03 09:10:38;;;;;;;3.03;1.58;;;;;;;22.49;60.62;98501.56;5017957;28;103460;-60
2021/08/03 09:13:12;;;;;;;3.00;1.20;;;;;;;22.15;62.33;98495.16;5017778;27;102964;-59
2021/08/03 09:15:44;;;;;;;1.83;1.13;;;;;;;22.37;63.08;98496.88;5019193;28;102606;-60
2021/08/03 09:18:18;;;;;;;2.90;1.20;;;;;;;21.79;62.98;98513.91;5019506;28;103341;-60
2021/08/03 09:20:48;;;;;;;3.20;1.45;;;;;;;21.65;63.14;98514.72;5020171;28;104369;-60
2021/08/03 09:23:17;;;;;;;2.55;1.70;;;;;;;20.53;68.32;98533.47;5021451;28;102627;-61
2021/08/03 09:25:57;;;;;;;4.47;1.77;;;;;;;19.51;71.87;98533.53;4997562;28;102713;-60
2021/08/03 09:28:26;;;;;;;3.83;1.45;;;;;;;19.75;71.90;98551.41;5019902;28;105601;-60
2021/08/03 09:30:55;;;;;;;1.50;1.40;;;;;;;19.20;73.34;98541.44;5009054;28;103253;-60
2021/08/03 09:33:27;;;;;;;3.05;1.23;;;;;;;18.86;75.85;98538.94;5003955;28;102644;-60
2021/08/03 09:35:56;;;;;;;2.10;1.52;;;;;;;18.96;77.48;98558.34;4983841;28;103056;-60
2021/08/03 09:38:26;;;;;;;1.25;1.15;;;;;;;18.72;78.37;98574.41;5000805;28;103664;-60
2021/08/03 09:41:07;;;;;;;3.85;1.05;;;;;;;18.42;79.42;98577.63;5004729;28;103296;-60
2021/08/03 09:43:37;;;;;;;1.77;1.00;;;;;;;18.27;80.64;98595.31;4990659;28;102698;-60
2021/08/03 09:46:05;;;;;;;2.47;1.40;;;;;;;17.72;84.32;98602.88;4992834;28;102974;-59
2021/08/03 09:48:33;;;;;;;2.08;1.33;;;;;;;16.93;89.66;98562.03;4977415;28;103547;-59
2021/08/03 09:51:05;;;;;;;3.90;1.38;;;;;;;17.11;88.88;98547.72;4997132;28;104363;-60
2021/08/03 09:53:52;;;;;;;1.67;0.98;;;;;;;17.64;89.02;98582.31;5002620;28;102597;-60
2021/08/03 09:56:35;;;;;;;2.70;1.30;;;;;;;17.50;88.75;98574.00;5000472;28;102716;-59
2021/08/03 09:59:06;;;;;;;1.40;1.20;;;;;;;17.75;88.95;98571.34;5000320;28;102847;-60
2021/08/03 10:01:35;;;;;;;2.40;1.40;;;;;;;17.92;88.24;98578.44;4998889;28;103330;-60
2021/08/03 10:04:06;;;;;;;1.83;1.10;;;;;;;18.24;87.96;98579.59;4999072;28;102652;-60
2021/08/03 10:06:36;;;;;;;1.92;1.25;;;;;;;18.37;89.02;98579.97;4981385;28;102708;-60
2021/08/03 10:09:06;;;;;;;3.00;1.23;;;;;;;18.51;87.30;98576.69;4999691;28;104367;-60
2021/08/03 10:11:35;;;;;;;1.88;1.35;;;;;;;18.27;86.97;98577.41;5001028;28;104262;-60
2021/08/03 10:14:25;;;;;;;1.65;1.10;;;;;;;18.41;88.03;98566.09;4997383;28;102611;-60
2021/08/03 10:16:54;;;;;;;1.60;1.50;;;;;;;17.95;89.04;98570.13;4980605;28;102727;-59
2021/08/03 10:19:24;;;;;;;1.60;1.38;;;;;;;18.24;89.44;98558.19;4997147;28;104551;-59
2021/08/03 10:22:02;;;;;;;1.60;1.50;;;;;;;18.48;86.96;98560.97;4995518;28;103325;-59
2021/08/03 10:24:33;;;;;;;1.40;1.30;;;;;;;18.65;85.55;98551.97;4976671;28;103049;-58
2021/08/03 10:27:06;;;;;;;2.50;1.30;;;;;;;18.94;89.28;98560.38;4995656;28;103273;-59
2021/08/03 10:29:40;;;;;;;2.22;1.50;;;;;;;18.94;85.66;98556.84;4989424;28;104538;-59
2021/08/03 10:32:42;;;;;;;3.05;1.50;;;;;;;18.90;86.82;98545.63;4995497;28;103365;-59
2021/08/03 10:35:15;;;;;;;1.35;1.15;;;;;;;19.52;85.83;98548.63;4993889;28;102599;-59
2021/08/03 10:38:09;;;;;;;4.10;1.48;;;;;;;19.08;83.48;98538.28;4993870;28;102955;-59
2021/08/03 10:41:18;;;;;;;1.50;1.20;;;;;;;19.10;84.57;98525.56;4994611;28;103270;-59
2021/08/03 10:43:54;;;;;;;1.75;1.20;;;;;;;18.76;83.46;98535.59;4991977;28;111564;-59
2021/08/03 10:46:36;;;;;;;1.70;1.10;;;;;;;19.22;84.12;98522.53;4978170;28;102754;-59
2021/08/03 10:49:06;;;;;;;0.80;0.80;;;;;;;19.52;85.32;98513.81;4994921;28;102834;-59
2021/08/03 10:51:43;;;;;;;1.10;1.05;;;;;;;19.63;85.04;98502.72;4995596;28;103471;-59
2021/08/03 10:54:17;;;;;;;10.55;8.50;;;;;;;19.91;81.96;98503.09;4984532;28;103314;-59
2021/08/03 10:57:21;;;;;;;5.28;4.88;;;;;;;19.68;81.91;98513.75;4994427;28;102647;-61
2021/08/03 11:00:01;;;;;;;80.65;65.20;;;;;;;20.01;80.13;98503.75;4996921;28;102697;-59
2021/08/03 11:02:48;;;;;;;14.13;12.65;;;;;;;20.06;81.65;98490.66;4996125;28;104365;-59
2021/08/03 11:05:28;;;;;;;6.40;4.35;;;;;;;20.85;81.94;98495.69;4998674;28;103118;-59
2021/08/03 11:07:57;;;;;;;2.13;1.95;;;;;;;21.33;77.87;98492.56;4996964;28;103117;-60
2021/08/03 11:10:34;;;;;;;2.35;1.58;;;;;;;21.24;78.05;98482.94;5000209;28;103057;-60
2021/08/03 11:13:04;;;;;;;2.08;1.70;;;;;;;20.95;78.90;98482.84;5000856;28;103180;-60
2021/08/03 11:15:41;;;;;;;2.00;1.33;;;;;;;20.88;78.66;98476.53;4980305;28;104183;-60
2021/08/03 11:18:13;;;;;;;1.70;1.60;;;;;;;20.74;79.02;98482.69;4981874;28;102581;-60
2021/08/03 11:21:01;;;;;;;1.38;1.27;;;;;;;21.36;78.79;98473.38;5001732;28;102838;-60
2021/08/03 11:24:11;;;;;;;3.13;1.42;;;;;;;21.34;79.45;98471.91;5000038;28;105669;-60
2021/08/03 11:26:41;;;;;;;2.08;1.30;;;;;;;21.48;76.02;98463.00;4911608;28;103370;-61
2021/08/03 11:29:12;;;;;;;2.55;1.23;;;;;;;21.80;76.56;98457.25;4971015;28;102875;-60
2021/08/03 11:31:50;;;;;;;1.70;1.60;;;;;;;21.51;73.49;98467.19;4982652;28;102823;-62
2021/08/03 11:34:24;;;;;;;2.75;1.27;;;;;;;21.82;75.38;98462.44;5022024;27;103338;-61
2021/08/03 11:37:05;;;;;;;3.30;1.50;;;;;;;22.02;73.33;98455.50;5020944;28;103383;-60
2021/08/03 11:39:37;;;;;;;2.45;1.50;;;;;;;21.57;76.29;98453.00;5000690;28;103680;-60
2021/08/03 11:42:06;;;;;;;1.52;1.38;;;;;;;21.44;74.78;98444.78;5020755;28;102982;-60
2021/08/03 11:44:35;;;;;;;2.03;1.65;;;;;;;21.58;75.81;98435.88;5018383;28;103378;-60
2021/08/03 11:47:06;;;;;;;2.25;1.50;;;;;;;21.32;74.65;98445.22;5021226;28;103183;-59
2021/08/03 11:49:39;;;;;;;2.30;1.38;;;;;;;21.42;74.29;98438.75;5016336;27;102663;-59
2021/08/03 11:52:16;;;;;;;2.63;1.63;;;;;;;21.33;74.04;98441.50;5017369;28;102736;-60
2021/08/03 11:54:48;;;;;;;1.63;1.50;;;;;;;21.32;75.49;98437.16;5000339;28;104483;-59
2021/08/03 11:57:34;;;;;;;1.63;1.27;;;;;;;21.61;74.88;98438.19;5017854;27;104338;-59
2021/08/03 12:00:12;;;;;;;3.47;1.90;;;;;;;21.94;72.52;98437.63;5017488;27;102690;-60
2021/08/03 12:02:43;;;;;;;1.30;1.20;;;;;;;22.48;71.12;98440.66;4997294;28;102628;-59
2021/08/03 12:05:20;;;;;;;1.65;1.13;;;;;;;22.43;70.63;98432.34;5017387;28;103628;-60
2021/08/03 12:07:50;;;;;;;1.55;1.45;;;;;;;22.35;72.08;98429.78;4997461;28;104451;-59
2021/08/03 12:10:20;;;;;;;2.65;1.73;;;;;;;22.67;71.46;98419.56;4980949;28;102899;-59
2021/08/03 12:12:49;;;;;;;1.73;1.45;;;;;;;22.42;72.04;98414.53;4997163;28;103225;-60
2021/08/03 12:15:18;;;;;;;2.00;1.35;;;;;;;22.78;70.13;98401.00;5014457;28;107928;-60
2021/08/03 12:17:49;;;;;;;2.53;1.65;;;;;;;22.86;70.70;98410.81;5016499;28;106337;-60
2021/08/03 12:20:27;;;;;;;1.92;1.33;;;;;;;22.84;71.51;98402.09;5017626;28;102674;-60
2021/08/03 12:23:07;;;;;;;1.75;1.20;;;;;;;22.80;71.67;98398.09;5017660;28;103115;-60
2021/08/03 12:25:46;;;;;;;1.88;1.50;;;;;;;22.75;70.54;98392.47;5013923;28;104842;-60
2021/08/03 12:28:29;;;;;;;3.00;1.67;;;;;;;22.38;71.53;98397.09;5016580;28;104314;-60
2021/08/03 12:30:59;;;;;;;3.00;1.40;;;;;;;22.12;71.90;98386.06;5016121;28;102728;-60
2021/08/03 12:33:29;;;;;;;1.83;1.50;;;;;;;22.38;70.55;98380.94;5014922;27;102704;-60
2021/08/03 12:36:04;;;;;;;2.38;1.60;;;;;;;22.63;70.29;98372.47;4994534;28;103558;-60
2021/08/03 12:38:32;;;;;;;1.20;1.10;;;;;;;22.01;68.42;98367.75;5012648;28;103040;-60
2021/08/03 12:41:14;;;;;;;1.60;1.10;;;;;;;22.47;66.04;98369.03;4976326;28;102801;-60
2021/08/03 12:43:43;;;;;;;1.33;1.00;;;;;;;22.36;66.24;98357.97;5012928;28;102771;-60
2021/08/03 12:46:11;;;;;;;1.23;1.13;;;;;;;22.04;65.91;98345.00;5015689;28;104534;-60
2021/08/03 12:48:49;;;;;;;1.60;1.20;;;;;;;21.89;65.48;98342.41;5012373;28;103832;-60
2021/08/03 12:51:27;;;;;;;1.05;0.90;;;;;;;22.40;64.73;98351.97;5010920;28;102757;-60
2021/08/03 12:54:11;;;;;;;0.90;0.80;;;;;;;21.80;63.17;98338.97;5011190;28;102844;-60
2021/08/03 12:56:52;;;;;;;1.10;0.90;;;;;;;22.25;65.24;98335.09;4993486;28;103349;-60
2021/08/03 12:59:37;;;;;;;0.82;0.82;;;;;;;22.51;62.89;98331.81;5013137;27;104350;-60
2021/08/03 13:02:06;;;;;;;2.10;1.05;;;;;;;22.48;62.54;98327.63;5012590;28;102951;-60
2021/08/03 13:04:34;;;;;;;0.70;0.70;;;;;;;22.86;63.77;98336.22;5013995;28;102972;-59
2021/08/03 13:07:04;;;;;;;0.85;0.75;;;;;;;23.29;62.75;98341.44;4996227;28;102945;-60
2021/08/03 13:09:34;;;;;;;1.25;1.10;;;;;;;23.47;60.71;98336.38;5011279;27;104287;-59
2021/08/03 13:12:05;;;;;;;1.10;0.98;;;;;;;23.73;59.55;98333.78;5017611;28;103078;-60
2021/08/03 13:14:34;;;;;;;0.98;0.80;;;;;;;24.07;57.51;98324.72;5019089;27;102713;-59
2021/08/03 13:17:04;;;;;;;1.73;0.90;;;;;;;23.96;57.27;98322.63;5017794;28;104338;-59
2021/08/03 13:19:34;;;;;;;0.98;0.88;;;;;;;23.91;57.17;98333.22;5018597;28;103187;-59
2021/08/03 13:22:04;;;;;;;1.15;0.73;;;;;;;24.10;55.56;98329.75;5018544;28;102700;-59
2021/08/03 13:24:32;;;;;;;0.93;0.90;;;;;;;23.85;57.23;98326.78;5018387;28;102977;-60
2021/08/03 13:27:00;;;;;;;1.80;0.90;;;;;;;23.47;58.96;98334.50;4999243;28;103297;-59
2021/08/03 13:29:28;;;;;;;1.00;0.90;;;;;;;23.22;59.24;98336.03;5017869;28;107612;-60
2021/08/03 13:31:56;;;;;;;0.98;0.80;;;;;;;23.05;60.61;98340.06;5017263;28;102587;-60
2021/08/03 13:34:24;;;;;;;2.65;1.00;;;;;;;22.87;59.98;98337.06;5020325;27;103881;-60
2021/08/03 13:36:52;;;;;;;1.90;0.90;;;;;;;22.82;59.55;98334.13;5017725;28;103630;-61
2021/08/03 13:39:22;;;;;;;2.28;1.10;;;;;;;22.49;60.98;98334.69;5003086;27;103126;-61
2021/08/03 13:41:50;;;;;;;1.00;0.68;;;;;;;23.27;61.03;98322.78;5017034;28;102635;-60
2021/08/03 13:44:19;;;;;;;0.88;0.88;;;;;;;23.09;61.29;98328.72;5018008;28;102790;-61
2021/08/03 13:46:47;;;;;;;0.90;0.80;;;;;;;23.20;61.27;98318.41;5016607;28;103221;-60
2021/08/03 13:49:15;;;;;;;1.10;0.80;;;;;;;23.03;61.21;98320.59;5020610;27;104443;-61
2021/08/03 13:51:43;;;;;;;1.30;1.10;;;;;;;22.51;62.51;98321.84;5000102;28;102676;-61
2021/08/03 13:54:11;;;;;;;1.02;0.80;;;;;;;22.19;62.96;98322.41;5018691;28;103983;-61
2021/08/03 13:56:40;;;;;;;1.15;0.85;;;;;;;22.05;62.54;98319.78;5000722;28;104620;-60
2021/08/03 13:59:09;;;;;;;1.98;1.00;;;;;;;22.06;63.74;98318.78;5000296;28;103375;-61
2021/08/03 14:01:37;;;;;;;1.00;0.90;;;;;;;21.88;64.17;98329.97;4998404;27;102845;-60
2021/08/03 14:04:05;;;;;;;1.20;1.10;;;;;;;21.97;64.64;98325.31;5000145;28;103757;-60
2021/08/03 14:06:33;;;;;;;0.80;0.80;;;;;;;21.83;65.05;98324.31;5017276;28;104373;-60
2021/08/03 14:09:02;;;;;;;2.25;1.15;;;;;;;21.69;66.02;98333.25;5013999;28;103319;-60
2021/08/03 14:11:30;;;;;;;1.10;1.00;;;;;;;22.01;65.55;98340.03;5018349;28;102626;-62
2021/08/03 14:14:00;;;;;;;1.25;1.02;;;;;;;21.67;65.83;98335.28;5017149;28;102985;-59
2021/08/03 14:16:29;;;;;;;0.80;0.80;;;;;;;21.41;66.14;98319.69;5015429;28;104561;-60
2021/08/03 14:18:57;;;;;;;1.15;0.90;;;;;;;21.93;66.00;98328.38;4999397;28;104261;-60
2021/08/03 14:21:25;;;;;;;1.15;1.05;;;;;;;22.15;65.21;98321.13;5017867;28;102733;-60
2021/08/03 14:23:53;;;;;;;2.38;1.02;;;;;;;22.50;64.58;98322.91;5012454;28;102940;-60
2021/08/03 14:26:21;;;;;;;1.30;1.20;;;;;;;22.63;64.01;98324.84;4982579;28;106811;-60
2021/08/03 14:28:49;;;;;;;1.08;0.98;;;;;;;22.59;63.93;98318.19;4999078;28;109862;-60
2021/08/03 14:31:19;;;;;;;1.02;0.82;;;;;;;22.68;65.16;98319.72;4978365;28;102799;-60
2021/08/03 14:33:47;;;;;;;0.82;0.82;;;;;;;22.34;64.45;98314.28;4998950;28;102705;-60
2021/08/03 14:36:15;;;;;;;1.20;1.10;;;;;;;22.00;65.02;98308.78;4999574;28;103510;-59
2021/08/03 14:38:48;;;;;;;1.90;1.00;;;;;;;22.74;64.14;98315.41;4994174;28;104416;-60
2021/08/03 14:48:33;;;;;;;0.82;0.70;;;;;;;22.72;61.56;98301.31;4926975;28;104197;-60
2021/08/03 14:51:01;;;;;;;0.80;0.80;;;;;;;22.71;62.95;98294.28;4937524;28;103971;-61
2021/08/03 14:53:30;;;;;;;0.85;0.85;;;;;;;22.54;61.75;98291.84;4935965;28;102581;-60
2021/08/03 14:55:59;;;;;;;0.93;0.80;;;;;;;22.63;63.04;98291.69;4935741;28;103315;-60
2021/08/03 14:58:27;;;;;;;0.90;0.70;;;;;;;22.67;61.42;98293.00;4935034;28;103420;-60
2021/08/03 15:00:55;;;;;;;1.02;0.85;;;;;;;22.47;61.44;98287.47;4915318;28;103200;-61
2021/08/03 15:03:23;;;;;;;1.15;0.88;;;;;;;22.15;62.83;98286.16;4937041;28;103276;-60
2021/08/03 15:05:53;;;;;;;1.65;0.80;;;;;;;22.42;62.12;98274.59;4937061;28;102737;-61
2021/08/03 15:08:21;;;;;;;0.93;0.90;;;;;;;22.49;62.73;98275.47;4916168;28;105736;-61
2021/08/03 15:10:50;;;;;;;1.40;0.75;;;;;;;22.44;62.64;98264.47;4935087;28;103165;-61
2021/08/03 15:13:18;;;;;;;1.10;0.93;;;;;;;22.63;62.02;98259.38;4928367;28;102977;-59
2021/08/03 15:15:46;;;;;;;1.55;1.13;;;;;;;22.86;62.51;98259.97;4939127;28;103154;-60
2021/08/03 15:18:15;;;;;;;1.27;0.70;;;;;;;22.90;62.35;98259.41;4917930;28;103309;-59
2021/08/03 15:20:43;;;;;;;1.08;0.90;;;;;;;22.84;62.79;98252.13;4939730;28;103106;-60